Time;durP1;ratioP1;P1;durP2;ratioP2;P2;SDS_P1;SDS_P2;PMS_P1;PMS_P2;Temp;Humidity;BMP_temperature;BMP_pressure;BME280_temperature;BME280_humidity;BME280_pressure;Samples;Min_cycle;Max_cycle;Signal;HPM_P1;HPM_P2
2022/04/24 00:01:18;;;;;;;4.93;2.40;;;13.30;70.30;;;13.17;48.21;99424.00;5166714;28;20051;-76
2022/04/24 00:03:51;;;;;;;3.97;2.33;;;13.20;70.20;;;13.16;48.49;99423.13;5166323;28;20141;-76
2022/04/24 00:06:24;;;;;;;4.50;2.53;;;13.20;70.50;;;13.09;48.49;99421.34;5166779;28;20148;-76
2022/04/24 00:08:56;;;;;;;4.55;2.55;;;13.20;70.50;;;13.08;48.97;99413.50;5166972;28;20054;-76
2022/04/24 00:11:30;;;;;;;4.45;2.53;;;13.10;70.80;;;13.04;49.02;99412.66;5166153;28;20050;-76
2022/04/24 00:14:07;;;;;;;3.78;2.42;;;13.10;70.90;;;13.03;48.72;99418.72;5166162;28;20132;-77
2022/04/24 00:16:40;;;;;;;5.30;2.63;;;13.10;70.90;;;13.00;49.18;99411.75;5166294;28;20073;-76
2022/04/24 00:19:15;;;;;;;5.20;2.60;;;13.10;71.30;;;12.97;49.35;99414.34;5166347;28;20057;-77
2022/04/24 00:21:47;;;;;;;4.50;2.63;;;13.00;71.40;;;12.95;49.23;99410.84;5167090;28;20042;-76
2022/04/24 00:24:21;;;;;;;5.47;2.80;;;13.00;71.30;;;12.92;49.33;99407.38;5166596;28;20137;-76
2022/04/24 00:26:54;;;;;;;5.70;2.60;;;13.00;71.80;;;12.87;49.77;99403.88;5166716;28;20148;-77
2022/04/24 00:29:26;;;;;;;4.60;2.83;;;13.00;71.80;;;12.90;49.32;99401.25;5166929;28;20054;-76
2022/04/24 00:31:58;;;;;;;4.10;2.67;;;12.90;71.90;;;12.90;49.42;99403.84;5170146;28;20056;-76
2022/04/24 00:34:31;;;;;;;4.15;2.63;;;12.90;72.00;;;12.89;49.56;99399.50;5170151;28;20054;-76
2022/04/24 00:37:04;;;;;;;4.60;2.65;;;12.90;72.10;;;12.88;49.52;99400.38;5169678;28;20056;-76
2022/04/24 00:39:36;;;;;;;3.83;2.75;;;12.90;72.20;;;12.86;49.76;99394.28;5169873;28;20050;-76
2022/04/24 00:42:10;;;;;;;5.15;2.65;;;12.90;72.30;;;12.84;49.58;99388.16;5170102;28;20050;-77
2022/04/24 00:44:42;;;;;;;3.90;2.75;;;12.90;72.20;;;12.85;49.61;99393.41;5170209;28;20415;-76
2022/04/24 00:47:18;;;;;;;3.70;2.60;;;12.80;72.50;;;12.81;50.11;99401.22;5169994;28;20081;-76
2022/04/24 00:49:52;;;;;;;3.90;2.40;;;12.80;72.60;;;12.79;50.07;99390.78;5169670;28;20498;-76
2022/04/24 00:52:24;;;;;;;5.50;3.10;;;12.80;72.60;;;12.73;49.99;99389.00;5169623;28;20097;-76
2022/04/24 00:54:56;;;;;;;4.28;2.50;;;12.80;73.40;;;12.72;50.32;99389.00;5169750;28;20146;-76
2022/04/24 00:57:28;;;;;;;4.40;2.50;;;12.80;72.80;;;12.68;50.23;99384.63;5169632;28;20140;-76
2022/04/24 01:00:00;;;;;;;3.60;2.42;;;12.80;72.80;;;12.68;49.93;99388.09;5169173;28;20341;-75
2022/04/24 01:02:33;;;;;;;3.83;2.63;;;12.70;72.80;;;12.72;49.86;99389.00;5169887;28;20077;-76
2022/04/24 01:05:09;;;;;;;3.25;2.42;;;12.70;72.80;;;12.73;50.05;99391.63;5169243;28;20082;-76
2022/04/24 01:07:41;;;;;;;3.75;2.40;;;12.70;73.70;;;12.72;50.11;99389.88;5169628;28;20105;-76
2022/04/24 01:10:14;;;;;;;4.85;2.88;;;12.70;73.00;;;12.68;50.13;99388.09;5169255;28;20054;-76
2022/04/24 01:12:46;;;;;;;3.25;2.50;;;12.70;73.00;;;12.70;49.78;99386.34;5169251;28;20077;-76
2022/04/24 01:15:18;;;;;;;3.72;2.83;;;12.70;73.00;;;12.70;50.15;99386.34;5169087;28;20133;-76
2022/04/24 01:17:50;;;;;;;4.00;2.33;;;12.70;73.30;;;12.66;49.86;99391.59;5169007;28;20051;-76
2022/04/24 01:20:24;;;;;;;5.05;2.97;;;12.70;73.10;;;12.67;50.27;99388.97;5168709;28;20050;-75
2022/04/24 01:22:56;;;;;;;5.28;2.90;;;12.60;73.20;;;12.67;50.39;99381.13;5169078;28;20050;-76
2022/04/24 01:25:28;;;;;;;4.63;2.67;;;12.60;73.60;;;12.65;50.56;99389.81;5168798;28;20056;-76
2022/04/24 01:28:00;;;;;;;3.92;2.70;;;12.60;73.80;;;12.65;50.82;99382.88;5168926;28;20598;-76
2022/04/24 01:30:32;;;;;;;4.82;2.85;;;12.60;74.30;;;12.62;51.43;99390.69;5168355;28;20062;-76
2022/04/24 01:33:06;;;;;;;3.20;2.50;;;12.50;75.10;;;12.56;51.81;99387.19;5168339;28;20057;-76
2022/04/24 01:35:39;;;;;;;3.42;2.15;;;12.40;75.70;;;12.51;52.32;99384.53;5168375;28;20062;-76
2022/04/24 01:38:11;;;;;;;5.03;2.70;;;12.40;76.50;;;12.43;52.68;99384.50;5168237;28;20047;-76
2022/04/24 01:40:43;;;;;;;4.40;2.60;;;12.30;76.90;;;12.38;52.54;99383.59;5168015;28;20046;-76
2022/04/24 01:43:16;;;;;;;4.88;2.95;;;12.30;76.80;;;12.33;52.81;99385.34;5168441;28;20096;-76
2022/04/24 01:45:48;;;;;;;5.45;3.25;;;12.20;77.20;;;12.30;53.08;99384.44;5167760;28;20510;-76
2022/04/24 01:48:20;;;;;;;4.93;2.90;;;12.20;77.80;;;12.24;53.52;99385.28;5167265;28;20522;-76
2022/04/24 01:50:55;;;;;;;5.28;2.47;;;12.10;78.60;;;12.19;54.26;99385.28;5166956;28;20089;-75
2022/04/24 01:53:28;;;;;;;5.28;2.83;;;12.00;80.20;;;12.15;54.74;99380.00;5166942;28;20042;-76
2022/04/24 01:56:03;;;;;;;5.45;2.92;;;12.00;80.50;;;12.07;55.27;99376.47;5167161;28;20054;-75
2022/04/24 01:58:37;;;;;;;4.18;2.83;;;11.90;81.40;;;11.98;56.09;99379.00;5166889;28;20046;-76
2022/04/24 02:01:09;;;;;;;5.05;2.63;;;11.80;82.50;;;11.88;56.57;99375.47;5166914;28;20050;-75
2022/04/24 02:03:41;;;;;;;6.10;2.97;;;11.80;83.30;;;11.80;56.87;99366.66;5166559;28;20462;-76
2022/04/24 02:06:14;;;;;;;6.05;2.72;;;11.70;84.30;;;11.72;57.44;99384.03;5166854;28;20057;-76
2022/04/24 02:08:46;;;;;;;5.15;2.67;;;11.60;85.30;;;11.64;58.03;99376.13;5166487;28;20053;-75
2022/04/24 02:11:18;;;;;;;4.70;2.80;;;11.50;86.30;;;11.57;58.34;99375.22;5166255;28;20052;-76
2022/04/24 02:13:50;;;;;;;4.88;2.80;;;11.50;87.20;;;11.50;58.54;99378.63;5166602;28;20132;-76
2022/04/24 02:16:22;;;;;;;4.45;3.03;;;11.40;87.90;;;11.46;58.75;99381.19;5166605;28;20081;-76
2022/04/24 02:18:54;;;;;;;3.58;2.58;;;11.30;88.50;;;11.43;58.93;99382.06;5166814;28;20056;-76
2022/04/24 02:21:28;;;;;;;5.15;2.90;;;11.30;89.20;;;11.37;58.89;99377.66;5167053;28;20050;-75
2022/04/24 02:24:01;;;;;;;5.65;2.88;;;11.30;89.50;;;11.32;58.84;99373.25;5166929;28;20073;-75
2022/04/24 02:26:33;;;;;;;5.22;2.97;;;11.20;90.00;;;11.29;59.00;99381.94;5166460;28;20112;-75
2022/04/24 02:29:05;;;;;;;8.45;3.20;;;11.20;90.20;;;11.27;59.29;99391.44;5167017;28;20226;-76
2022/04/24 02:31:37;;;;;;;6.13;3.00;;;11.20;90.90;;;11.24;59.65;99385.34;5166404;28;20046;-75
2022/04/24 02:34:09;;;;;;;5.20;3.05;;;11.10;90.90;;;11.21;60.02;99386.16;5166653;28;20046;-75
2022/04/24 02:36:42;;;;;;;5.05;2.85;;;11.10;91.40;;;11.15;60.38;99380.94;5166832;28;20050;-76
2022/04/24 02:39:14;;;;;;;4.72;2.85;;;11.10;91.80;;;11.11;60.72;99382.63;5166514;28;20137;-77
2022/04/24 02:41:46;;;;;;;4.78;3.10;;;11.00;92.30;;;11.04;61.06;99380.81;5166217;28;20133;-75
2022/04/24 02:44:18;;;;;;;6.65;3.28;;;10.90;92.80;;;10.99;61.75;99379.00;5166749;28;20522;-76
2022/04/24 02:46:50;;;;;;;5.22;3.17;;;10.90;93.40;;;10.93;62.09;99379.81;5166382;28;20133;-76
2022/04/24 02:49:22;;;;;;;5.28;2.90;;;10.90;94.00;;;10.88;62.55;99374.53;5165688;28;20060;-76
2022/04/24 02:51:56;;;;;;;4.95;3.40;;;10.80;94.50;;;10.83;62.94;99370.16;5165676;28;20129;-76
2022/04/24 02:54:28;;;;;;;6.65;3.72;;;10.70;95.00;;;10.73;63.14;99366.56;5165414;28;20054;-75
2022/04/24 02:57:00;;;;;;;4.78;3.42;;;10.70;95.30;;;10.69;63.62;99363.88;5165861;28;20050;-76
2022/04/24 02:59:32;;;;;;;4.90;3.10;;;10.60;95.80;;;10.63;63.86;99369.94;5165835;28;20054;-76
2022/04/24 03:02:04;;;;;;;5.22;3.40;;;10.60;96.30;;;10.57;63.93;99375.94;5165307;28;20046;-76
2022/04/24 03:04:37;;;;;;;5.90;3.33;;;10.50;96.70;;;10.51;64.41;99373.25;5165516;28;20119;-75
2022/04/24 03:07:10;;;;;;;6.32;3.35;;;10.50;97.00;;;10.47;64.58;99378.41;5165951;28;20507;-76
2022/04/24 03:09:42;;;;;;;6.78;4.20;;;10.40;97.30;;;10.44;64.76;99381.84;5165784;28;20403;-76
2022/04/24 03:12:14;;;;;;;6.50;3.53;;;10.40;97.60;;;10.40;64.95;99372.22;5165484;28;20498;-75
2022/04/24 03:14:46;;;;;;;6.18;3.58;;;10.30;97.90;;;10.38;64.77;99368.75;5166198;28;20054;-76
2022/04/24 03:17:18;;;;;;;7.85;3.70;;;10.30;98.00;;;10.40;64.82;99371.38;5165456;28;20056;-76
2022/04/24 03:19:50;;;;;;;7.97;3.70;;;10.30;98.10;;;10.41;64.52;99373.97;5165407;28;20054;-76
2022/04/24 03:22:24;;;;;;;6.03;4.25;;;10.30;98.00;;;10.41;64.37;99368.78;5165335;28;20407;-76
2022/04/24 03:24:56;;;;;;;6.60;3.25;;;10.30;98.10;;;10.41;64.54;99363.56;5165513;28;20507;-76
2022/04/24 03:27:28;;;;;;;5.93;3.38;;;10.30;98.30;;;10.38;65.16;99367.88;5165331;28;20050;-76
2022/04/24 03:30:00;;;;;;;7.50;4.22;;;10.30;98.70;;;10.32;65.32;99363.47;5165474;28;20435;-75
2022/04/24 03:32:33;;;;;;;7.93;3.70;;;10.20;98.90;;;10.24;65.53;99359.88;5164920;28;20128;-76
2022/04/24 03:35:08;;;;;;;7.50;4.20;;;10.20;99.20;;;10.23;65.79;99364.19;5165573;28;20459;-76
2022/04/24 03:37:43;;;;;;;8.43;4.47;;;10.20;99.40;;;10.18;66.20;99370.19;5165176;28;20432;-75
2022/04/24 03:40:15;;;;;;;7.97;3.63;;;10.10;99.70;;;10.13;66.32;99364.03;5164941;28;20050;-74
2022/04/24 03:42:47;;;;;;;8.65;4.93;;;10.10;99.90;;;10.07;66.76;99365.69;5165156;28;20389;-75
2022/04/24 03:45:19;;;;;;;7.88;3.83;;;10.10;99.90;;;10.02;67.15;99364.75;5164716;28;20072;-75
2022/04/24 03:47:52;;;;;;;8.80;4.90;;;10.00;99.90;;;10.01;67.29;99362.13;5164676;28;20465;-75
2022/04/24 03:50:25;;;;;;;8.68;4.40;;;10.00;99.90;;;9.95;67.47;99360.31;5164773;28;20058;-76
2022/04/24 03:52:58;;;;;;;6.75;3.70;;;9.90;99.90;;;9.93;67.42;99371.56;5164665;28;20053;-76
2022/04/24 03:55:30;;;;;;;7.20;3.55;;;9.90;99.90;;;9.91;67.64;99366.34;5164729;28;20072;-76
2022/04/24 03:58:02;;;;;;;6.35;3.72;;;9.90;99.90;;;9.91;67.91;99368.94;5164835;28;20046;-76
2022/04/24 04:00:34;;;;;;;6.88;3.90;;;9.80;99.90;;;9.87;67.79;99369.72;5164498;28;20058;-75
2022/04/24 04:03:06;;;;;;;8.38;4.82;;;9.80;99.90;;;9.77;68.29;99370.44;5164831;28;20474;-75
2022/04/24 04:05:38;;;;;;;9.07;4.25;;;9.80;99.90;;;9.76;68.35;99369.56;5168093;28;20046;-75
2022/04/24 04:08:12;;;;;;;8.48;4.22;;;9.70;99.90;;;9.74;68.85;99373.00;5168709;28;20397;-76
2022/04/24 04:10:44;;;;;;;12.32;5.00;;;9.70;99.90;;;9.68;68.63;99368.56;5168972;28;20406;-75
2022/04/24 04:13:29;;;;;;;7.95;3.85;;;9.60;99.90;;;9.66;69.18;99372.00;5240692;23;20049;-70
2022/04/24 04:16:01;;;;;;;8.50;4.13;;;9.60;99.90;;;9.63;68.90;99375.41;5187297;28;20054;-69
2022/04/24 04:18:33;;;;;;;8.25;3.65;;;9.60;99.90;;;9.59;69.03;99383.19;5188952;28;20050;-69
2022/04/24 04:21:06;;;;;;;7.32;4.00;;;9.50;99.90;;;9.56;69.58;99378.78;5189318;28;20052;-70
2022/04/24 04:23:39;;;;;;;7.53;4.47;;;9.50;99.90;;;9.51;69.39;99376.09;5188917;28;20046;-69
2022/04/24 04:26:11;;;;;;;10.18;4.20;;;9.50;99.90;;;9.48;69.99;99385.59;5188136;28;20050;-70
2022/04/24 04:28:44;;;;;;;7.68;4.13;;;9.50;99.90;;;9.44;70.18;99387.25;5188033;28;20052;-69
2022/04/24 04:31:17;;;;;;;8.30;4.60;;;9.40;99.90;;;9.42;70.33;99382.88;5187641;28;20052;-70
2022/04/24 04:33:49;;;;;;;8.73;3.83;;;9.40;99.90;;;9.41;70.56;99389.81;5188105;28;20046;-70
2022/04/24 04:36:21;;;;;;;6.55;3.80;;;9.30;99.90;;;9.41;70.80;99397.63;5187734;28;20054;-69
2022/04/24 04:38:54;;;;;;;7.68;3.97;;;9.30;99.90;;;9.40;71.22;99401.06;5188051;28;20046;-69
2022/04/24 04:41:26;;;;;;;6.97;4.68;;;9.40;99.90;;;9.38;71.40;99402.75;5187957;28;20422;-71
2022/04/24 04:43:58;;;;;;;10.40;4.43;;;9.30;99.90;;;9.37;71.60;99403.59;5187845;28;20046;-68
2022/04/24 04:46:30;;;;;;;7.75;4.32;;;9.40;99.90;;;9.36;71.62;99409.66;5187698;28;20410;-69
2022/04/24 04:49:02;;;;;;;7.53;4.07;;;9.30;99.90;;;9.36;71.89;99407.06;5187916;28;20056;-69
2022/04/24 04:51:34;;;;;;;7.32;4.05;;;9.30;99.90;;;9.35;71.90;99418.31;5187407;28;20053;-70
2022/04/24 04:54:08;;;;;;;6.63;4.07;;;9.30;99.90;;;9.34;72.06;99413.97;5187613;28;20052;-69
2022/04/24 04:56:40;;;;;;;10.70;4.18;;;9.30;99.90;;;9.34;72.58;99423.50;5187590;28;20050;-70
2022/04/24 04:59:12;;;;;;;7.07;3.70;;;9.30;99.90;;;9.35;72.90;99428.72;5187257;28;20050;-69
2022/04/24 05:01:43;;;;;;;7.65;4.40;;;9.30;99.90;;;9.37;72.83;99423.53;5187057;28;20406;-70
2022/04/24 05:04:15;;;;;;;7.05;3.88;;;9.40;99.90;;;9.39;73.03;99419.22;5187316;28;20046;-69
2022/04/24 05:06:47;;;;;;;7.72;4.20;;;9.30;99.90;;;9.45;72.90;99427.13;5187412;28;20050;-69
2022/04/24 05:09:21;;;;;;;7.25;4.07;;;9.40;99.90;;;9.48;72.82;99427.22;5187382;28;20491;-70
2022/04/24 05:11:53;;;;;;;7.93;4.40;;;9.40;99.90;;;9.51;72.57;99428.13;5187025;28;20060;-70
2022/04/24 05:14:25;;;;;;;10.75;4.32;;;9.50;99.90;;;9.56;72.95;99429.94;5186730;28;20058;-69
2022/04/24 05:16:57;;;;;;;7.65;3.97;;;9.50;99.90;;;9.59;72.84;99428.28;5186335;28;20050;-70
2022/04/24 05:19:29;;;;;;;8.13;3.88;;;9.50;99.90;;;9.63;72.57;99437.00;5187176;28;20057;-70
2022/04/24 05:22:01;;;;;;;9.65;4.20;;;9.50;99.90;;;9.66;72.55;99437.06;5186974;28;20142;-69
2022/04/24 05:24:34;;;;;;;9.05;4.18;;;9.60;99.90;;;9.70;72.76;99433.63;5187009;28;20042;-69
2022/04/24 05:27:07;;;;;;;9.40;4.22;;;9.60;99.90;;;9.79;72.38;99439.00;5186851;28;20046;-70
2022/04/24 05:29:39;;;;;;;7.88;3.83;;;9.70;99.90;;;9.94;72.83;99444.44;5186869;28;20453;-69
2022/04/24 05:32:11;;;;;;;6.72;3.95;;;9.80;99.90;;;10.23;72.42;99436.22;5186334;28;20053;-70
2022/04/24 05:34:43;;;;;;;7.78;5.07;;;10.00;99.90;;;10.66;72.24;99444.66;5186795;28;20442;-71
2022/04/24 05:37:15;;;;;;;9.23;3.97;;;10.40;99.90;;;11.20;71.68;99446.16;5186832;28;20056;-70
2022/04/24 05:39:48;;;;;;;8.50;4.72;;;10.80;99.90;;;11.77;69.46;99447.59;5185939;28;20192;-69
2022/04/24 05:42:20;;;;;;;8.30;4.60;;;11.20;99.90;;;12.37;67.07;99449.78;5186443;28;20077;-69
2022/04/24 05:44:53;;;;;;;9.18;4.38;;;11.70;99.90;;;12.97;63.75;99452.69;5186847;28;20471;-69
2022/04/24 05:47:24;;;;;;;8.23;4.47;;;12.30;99.90;;;13.63;61.62;99450.28;5186669;28;20046;-70
2022/04/24 05:49:56;;;;;;;7.65;4.13;;;12.90;99.80;;;14.26;58.97;99444.16;5186380;28;20498;-70
2022/04/24 05:52:29;;;;;;;7.30;4.10;;;13.50;97.90;;;14.75;55.20;99451.97;5186143;28;20049;-71
2022/04/24 05:55:02;;;;;;;8.05;4.30;;;14.00;95.70;;;14.93;53.59;99451.88;5185958;28;20053;-70
2022/04/24 05:57:34;;;;;;;6.72;3.90;;;14.30;92.90;;;15.14;53.49;99457.91;5186176;28;20049;-68
2022/04/24 06:00:09;;;;;;;7.35;3.88;;;14.50;92.50;;;15.41;51.84;99465.63;5186741;28;20049;-70
2022/04/24 06:02:41;;;;;;;6.97;4.13;;;14.80;91.10;;;15.52;50.97;99459.44;5186324;28;20057;-68
2022/04/24 06:05:14;;;;;;;7.13;4.13;;;15.00;89.50;;;15.79;49.70;99461.94;5186705;28;20118;-69
2022/04/24 06:07:46;;;;;;;6.75;3.95;;;15.20;86.70;;;16.22;48.40;99464.19;5186376;28;20490;-69
2022/04/24 06:10:19;;;;;;;7.43;4.43;;;15.50;84.30;;;16.62;46.62;99463.78;5186020;28;20050;-69
2022/04/24 06:12:54;;;;;;;6.50;4.28;;;15.80;81.10;;;16.79;45.05;99467.13;5186096;28;20054;-70
2022/04/24 06:15:28;;;;;;;6.70;4.15;;;16.00;77.50;;;16.70;44.35;99462.00;5185895;28;20061;-68
2022/04/24 06:18:00;;;;;;;5.78;4.20;;;16.00;75.10;;;16.77;44.53;99464.53;5186233;28;20141;-68
2022/04/24 06:20:32;;;;;;;7.78;4.15;;;16.10;75.00;;;17.03;44.37;99464.22;5186603;28;20068;-69
2022/04/24 06:23:04;;;;;;;6.57;4.20;;;16.30;74.70;;;17.30;44.09;99476.16;5186148;28;20054;-67
2022/04/24 06:25:38;;;;;;;6.78;3.95;;;16.50;74.30;;;17.45;43.41;99467.16;5186041;28;20046;-68
2022/04/24 06:28:10;;;;;;;7.80;4.40;;;16.60;73.00;;;17.37;42.62;99471.66;5184992;28;20050;-69
2022/04/24 06:30:43;;;;;;;6.40;4.10;;;16.70;71.20;;;17.07;42.92;99462.41;5185875;28;20046;-68
2022/04/24 06:33:15;;;;;;;6.40;4.20;;;16.60;70.40;;;16.72;43.03;99470.72;5185504;28;20054;-68
2022/04/24 06:35:47;;;;;;;6.40;4.00;;;16.40;70.00;;;16.47;43.64;99465.69;5185920;28;20050;-68
2022/04/24 06:38:21;;;;;;;7.00;4.57;;;16.10;70.30;;;16.28;44.09;99465.00;5187088;28;20045;-69
2022/04/24 06:40:54;;;;;;;7.28;4.25;;;16.00;70.90;;;16.07;43.82;99466.94;5185720;28;20053;-69
2022/04/24 06:43:26;;;;;;;6.75;4.07;;;15.80;69.70;;;15.93;44.12;99467.94;5185648;28;20046;-69
2022/04/24 06:45:58;;;;;;;7.22;4.00;;;15.70;70.10;;;15.96;44.24;99478.41;5185699;28;20056;-71
2022/04/24 06:48:30;;;;;;;7.82;4.07;;;15.70;70.40;;;15.91;44.47;99474.97;5185289;28;20054;-70
2022/04/24 06:51:02;;;;;;;6.43;4.22;;;15.60;70.60;;;15.92;44.69;99481.97;5186068;28;20046;-70
2022/04/24 06:53:35;;;;;;;6.40;3.70;;;15.60;70.90;;;15.86;44.54;99487.28;5185409;28;20050;-69
2022/04/24 06:56:09;;;;;;;7.97;4.35;;;15.60;71.00;;;15.80;44.63;99487.31;5185652;28;20049;-70
2022/04/24 06:58:41;;;;;;;7.72;4.60;;;15.50;70.70;;;15.74;44.81;99485.59;5186776;28;20490;-69
2022/04/24 07:01:13;;;;;;;7.80;4.65;;;15.40;71.10;;;15.73;45.55;99477.72;5185113;28;20050;-70
2022/04/24 07:03:45;;;;;;;6.80;3.95;;;15.40;72.00;;;15.79;45.54;99479.44;5185628;28;20042;-70
2022/04/24 07:06:17;;;;;;;8.20;4.07;;;15.40;72.30;;;15.88;45.27;99472.34;5185299;28;20085;-70
2022/04/24 07:08:49;;;;;;;8.43;5.00;;;15.50;72.00;;;16.03;45.25;99479.22;5185425;28;20049;-69
2022/04/24 07:11:22;;;;;;;7.85;4.95;;;15.50;72.10;;;16.28;45.15;99474.63;5184958;28;20433;-69
2022/04/24 07:13:54;;;;;;;9.13;4.80;;;15.70;72.30;;;16.45;45.51;99485.88;5185107;28;20050;-69
2022/04/24 07:16:26;;;;;;;6.78;4.60;;;15.80;73.00;;;16.44;45.30;99476.25;5186860;28;20046;-71
2022/04/24 07:18:58;;;;;;;7.55;5.65;;;15.90;72.70;;;16.42;45.22;99480.63;5184932;28;20052;-70
2022/04/24 07:21:30;;;;;;;7.22;4.32;;;15.90;72.40;;;16.39;45.38;99480.69;5184588;28;20060;-71
2022/04/24 07:24:03;;;;;;;7.18;4.82;;;15.90;72.50;;;16.34;45.55;99479.84;5184789;28;20049;-70
2022/04/24 07:26:36;;;;;;;6.38;4.13;;;15.90;72.50;;;16.29;45.53;99481.63;5185001;28;20062;-68
2022/04/24 07:29:09;;;;;;;7.78;4.68;;;15.90;72.50;;;16.37;45.78;99471.06;5185294;28;20050;-70
2022/04/24 07:31:41;;;;;;;6.97;3.95;;;15.90;72.70;;;16.45;45.40;99470.09;5184877;28;20065;-71
2022/04/24 07:34:13;;;;;;;6.97;4.20;;;15.90;72.50;;;16.52;45.45;99468.28;5184554;28;20306;-69
2022/04/24 07:36:45;;;;;;;7.95;3.92;;;16.00;72.60;;;16.59;44.98;99475.22;5186317;28;20049;-70
2022/04/24 07:39:17;;;;;;;6.57;4.45;;;16.00;72.30;;;16.71;44.85;99467.22;5184424;28;20046;-69
2022/04/24 07:41:50;;;;;;;6.65;4.07;;;16.10;72.20;;;16.84;45.26;99465.31;5184543;28;20049;-69
2022/04/24 07:44:22;;;;;;;6.25;3.70;;;16.20;72.60;;;16.95;44.93;99470.44;5185011;28;20045;-68
2022/04/24 07:46:54;;;;;;;7.55;5.13;;;16.30;72.50;;;16.80;44.87;99469.75;5184758;28;20380;-69
2022/04/24 07:49:26;;;;;;;7.20;4.18;;;16.30;72.10;;;16.73;45.04;99465.44;5139932;28;20060;-69
2022/04/24 07:51:58;;;;;;;7.18;4.20;;;16.30;72.00;;;16.71;44.45;99463.72;5164038;28;20050;-69
2022/04/24 07:54:30;;;;;;;6.93;4.25;;;16.30;71.10;;;16.74;44.43;99463.69;5167160;28;20053;-69
2022/04/24 07:57:06;;;;;;;7.53;4.22;;;16.30;71.40;;;16.78;44.84;99462.78;5165027;28;20509;-70
2022/04/24 07:59:38;;;;;;;6.82;3.95;;;16.30;71.50;;;16.84;44.76;99460.06;5165384;28;20054;-69
2022/04/24 08:02:10;;;;;;;5.60;3.88;;;16.30;71.60;;;16.86;44.58;99463.53;5164898;28;20483;-70
2022/04/24 08:04:42;;;;;;;7.35;4.80;;;16.30;70.90;;;16.93;44.53;99459.94;5164722;28;20411;-70
2022/04/24 08:07:15;;;;;;;7.35;4.57;;;16.40;71.10;;;17.02;44.32;99464.25;5164469;28;20050;-70
2022/04/24 08:09:47;;;;;;;7.68;4.18;;;16.50;71.10;;;17.09;43.82;99460.66;5164215;28;20085;-70
2022/04/24 08:12:20;;;;;;;6.13;4.22;;;16.50;70.90;;;17.19;43.69;99466.66;5164472;28;20050;-69
2022/04/24 08:14:52;;;;;;;6.47;3.83;;;16.60;70.10;;;17.51;43.70;99458.31;5151080;28;20053;-67
2022/04/24 08:17:25;;;;;;;8.10;4.85;;;16.70;70.80;;;18.08;43.40;99458.31;5150578;28;20446;-67
2022/04/24 08:19:57;;;;;;;7.38;4.07;;;17.10;71.10;;;18.73;41.73;99460.69;5143718;28;20057;-68
2022/04/24 08:22:38;;;;;;;6.97;4.18;;;17.50;69.50;;;19.31;40.13;99459.50;5162234;28;20513;-66
2022/04/24 08:25:13;;;;;;;6.70;4.43;;;17.90;67.60;;;20.07;38.87;99449.78;5165687;28;20245;-68
2022/04/24 08:27:48;;;;;;;7.18;4.10;;;18.40;66.60;;;20.99;37.00;99449.97;5164313;28;20069;-67
2022/04/24 08:30:23;;;;;;;5.85;3.83;;;19.00;64.60;;;22.45;35.43;99455.97;5164224;28;20053;-65
2022/04/24 08:32:55;;;;;;;7.40;5.05;;;19.70;64.10;;;23.77;33.08;99456.38;5164288;28;20499;-63
2022/04/24 08:35:28;;;;;;;7.90;5.75;;;20.70;62.90;;;25.09;30.14;99457.81;5164280;28;20050;-63
2022/04/24 08:38:00;;;;;;;8.60;5.75;;;21.60;58.00;;;26.36;28.34;99458.84;5164431;28;20133;-65
2022/04/24 08:40:33;;;;;;;11.05;6.88;;;22.60;55.70;;;27.03;26.85;99460.66;5164199;28;20065;-56
2022/04/24 08:43:07;;;;;;;8.30;6.80;;;23.30;53.00;;;27.92;25.69;99455.78;5163383;28;20419;-56
2022/04/24 08:45:42;;;;;;;7.22;4.13;;;24.10;51.40;;;28.62;25.31;99449.78;5155956;28;20042;-57
2022/04/24 08:48:15;;;;;;;6.47;4.43;;;24.80;50.70;;;29.30;24.32;99462.59;5163581;28;20492;-56
2022/04/24 08:50:48;;;;;;;8.18;5.22;;;25.40;49.20;;;29.88;23.67;99466.06;5163721;28;20056;-57
2022/04/24 08:53:21;;;;;;;6.22;5.00;;;26.00;48.30;;;29.37;22.46;99455.88;5164863;28;20050;-57
2022/04/24 08:55:53;;;;;;;7.78;4.50;;;26.00;45.50;;;29.67;22.58;99462.97;5166589;28;20046;-56
2022/04/24 08:58:27;;;;;;;5.82;4.15;;;26.30;45.40;;;29.49;21.84;99459.59;5167504;28;20052;-56
2022/04/24 09:00:59;;;;;;;5.25;3.92;;;26.30;44.20;;;29.19;22.73;99465.94;5166700;28;20050;-55
2022/04/24 09:03:31;;;;;;;17.35;10.68;;;26.20;44.50;;;29.50;22.93;99457.78;5166416;28;20140;-55
2022/04/24 09:06:03;;;;;;;6.07;4.38;;;26.40;45.40;;;28.99;22.59;99470.84;5166979;28;20103;-56
2022/04/24 09:08:37;;;;;;;6.15;4.63;;;26.20;43.80;;;27.95;22.73;99455.59;5167374;28;20104;-54
2022/04/24 09:11:09;;;;;;;10.82;7.20;;;25.80;43.30;;;26.43;24.88;99452.25;5166761;28;20140;-55
2022/04/24 09:16:36;;;;;;;7.13;4.60;;;24.60;45.00;;;25.83;25.28;99446.38;5166648;28;20511;-55
2022/04/24 09:19:19;;;;;;;6.65;4.07;;;24.40;45.50;;;25.81;26.43;99446.41;5162563;28;20058;-55
2022/04/24 09:21:53;;;;;;;6.70;4.30;;;24.30;46.40;;;25.85;26.12;99441.81;5165655;28;20137;-55
2022/04/24 09:24:30;;;;;;;6.47;4.40;;;24.40;46.10;;;25.07;26.51;99440.16;5166933;28;20053;-61
2022/04/24 09:27:02;;;;;;;5.55;4.05;;;24.20;45.50;;;24.85;27.26;99441.13;5162138;28;20084;-56
2022/04/24 09:29:35;;;;;;;6.45;4.13;;;24.00;46.50;;;24.05;27.98;99445.47;5166509;28;20133;-56
2022/04/24 09:32:12;;;;;;;6.97;4.25;;;23.70;46.40;;;23.79;28.34;99436.75;5166212;28;20133;-56
2022/04/24 09:34:44;;;;;;;7.75;4.38;;;23.40;46.60;;;23.45;28.85;99439.88;5166381;28;20529;-56
2022/04/24 09:37:16;;;;;;;5.53;4.15;;;23.10;47.20;;;23.06;29.19;99442.28;5166754;28;20058;-55
2022/04/24 09:39:49;;;;;;;6.22;3.95;;;22.80;47.40;;;22.61;29.66;99439.47;5166362;28;20050;-55
2022/04/24 09:42:22;;;;;;;6.60;4.15;;;22.40;47.60;;;22.30;30.11;99450.31;5166115;28;20690;-55
2022/04/24 09:44:55;;;;;;;4.75;3.63;;;22.00;48.20;;;21.87;30.47;99441.97;5161685;28;20058;-56
2022/04/24 09:47:28;;;;;;;6.38;4.13;;;21.70;49.10;;;21.37;30.46;99440.91;5165045;28;20502;-54
2022/04/24 09:50:02;;;;;;;6.57;4.20;;;21.30;48.50;;;21.21;30.79;99445.78;5166466;28;20050;-70
2022/04/24 09:52:35;;;;;;;6.53;3.55;;;21.10;48.70;;;20.80;30.94;99445.22;5166752;28;20421;-72
2022/04/24 09:55:08;;;;;;;6.20;3.83;;;20.70;48.70;;;20.17;31.22;99443.38;5166353;28;20053;-67
2022/04/24 09:57:40;;;;;;;5.47;3.30;;;20.30;48.70;;;20.15;31.77;99441.66;5150447;28;20048;-68
2022/04/24 10:00:16;;;;;;;4.68;2.95;;;20.10;49.40;;;20.13;31.70;99436.41;5166430;28;20061;-67
2022/04/24 10:02:51;;;;;;;4.57;3.25;;;20.00;49.50;;;20.32;32.24;99457.97;5166120;28;20108;-68
2022/04/24 10:05:28;;;;;;;8.05;4.10;;;20.00;50.30;;;20.35;33.38;99446.44;5166269;28;20112;-68
2022/04/24 10:08:02;;;;;;;6.50;3.25;;;20.00;51.60;;;20.13;32.17;99446.97;5166210;28;20128;-68
2022/04/24 10:10:35;;;;;;;5.45;3.00;;;20.00;50.30;;;20.19;32.44;99451.25;5166038;28;20057;-66
2022/04/24 10:13:10;;;;;;;5.68;3.40;;;19.90;50.40;;;20.18;32.48;99457.47;5267734;22;20161;-81
2022/04/24 10:15:50;;;;;;;6.25;3.42;;;19.90;50.60;;;20.25;33.17;99459.91;5223131;23;20050;-65
2022/04/24 10:18:44;;;;;;;5.68;3.90;;;19.90;51.40;;;20.45;33.47;99459.41;5166233;28;20056;-66
2022/04/24 10:21:43;;;;;;;5.57;3.63;;;20.00;52.10;;;20.47;32.67;99460.22;5165490;28;20050;-65
2022/04/24 10:24:15;;;;;;;3.97;2.92;;;20.10;51.20;;;20.31;32.31;99457.09;5165414;28;20050;-65
2022/04/24 10:26:55;;;;;;;4.60;3.00;;;20.00;50.50;;;20.13;31.61;99468.16;5165756;28;20056;-67
2022/04/24 10:29:28;;;;;;;5.35;3.03;;;19.90;49.70;;;20.16;32.01;99468.09;5165624;28;20046;-66
2022/04/24 10:32:01;;;;;;;5.00;3.40;;;19.80;49.80;;;20.53;32.98;99472.44;5165248;28;20050;-65
2022/04/24 10:34:39;;;;;;;4.97;3.35;;;20.00;51.50;;;20.51;31.90;99468.97;5166292;28;20101;-65
2022/04/24 10:37:12;;;;;;;5.95;3.17;;;20.00;50.20;;;20.81;33.14;99467.28;5165826;28;20046;-65
2022/04/24 10:39:55;;;;;;;5.55;3.67;;;20.20;52.00;;;21.08;33.35;99473.56;5165824;28;20104;-65
2022/04/24 10:42:32;;;;;;;5.43;3.33;;;20.40;53.00;;;21.35;32.95;99475.44;5166194;28;20133;-67
2022/04/24 10:45:12;;;;;;;7.20;3.65;;;20.60;52.10;;;21.63;32.14;99482.53;5166270;28;20047;-66
2022/04/24 10:47:55;;;;;;;5.63;3.58;;;20.90;51.50;;;21.68;31.88;99470.00;5165706;28;20054;-66